Time;durP1;ratioP1;P1;durP2;ratioP2;P2;SDS_P1;SDS_P2;PMS_P1;PMS_P2;Temp;Humidity;BMP_temperature;BMP_pressure;BME280_temperature;BME280_humidity;BME280_pressure;Samples;Min_cycle;Max_cycle;Signal;HPM_P1;HPM_P2
2023/06/28 00:00:14;;;;;;;2.92;2.40;;;;;;;;;;5044967;28;20072;-66
2023/06/28 00:02:43;;;;;;;3.55;2.65;;;;;;;;;;5044962;28;20029;-66
2023/06/28 00:05:09;;;;;;;5.80;2.60;;;;;;;;;;5077192;28;20115;-66
2023/06/28 00:07:35;;;;;;;2.72;2.47;;;;;;;;;;5042754;28;20041;-67
2023/06/28 00:10:00;;;;;;;3.65;2.88;;;;;;;;;;5044464;28;20539;-66
2023/06/28 00:12:28;;;;;;;3.08;2.63;;;;;;;;;;5045264;28;20032;-66
2023/06/28 00:14:54;;;;;;;3.15;2.72;;;;;;;;;;5045086;28;20082;-68
2023/06/28 00:17:27;;;;;;;4.75;2.72;;;;;;;;;;5043073;28;20040;-69
2023/06/28 00:20:07;;;;;;;5.68;2.55;;;;;;;;;;5044657;28;20080;-66
2023/06/28 00:22:33;;;;;;;3.63;2.72;;;;;;;;;;5043845;28;20044;-67
2023/06/28 00:25:00;;;;;;;3.50;2.78;;;;;;;;;;5043732;28;20044;-66
2023/06/28 00:27:27;;;;;;;3.15;2.40;;;;;;;;;;5044298;28;20090;-66
2023/06/28 00:29:52;;;;;;;3.10;2.60;;;;;;;;;;5043150;28;20095;-66
2023/06/28 00:32:18;;;;;;;3.20;2.60;;;;;;;;;;5060588;28;20535;-66
2023/06/28 00:34:43;;;;;;;2.75;2.55;;;;;;;;;;5045169;28;20384;-66
2023/06/28 00:37:09;;;;;;;4.72;2.90;;;;;;;;;;5044811;28;20381;-66
2023/06/28 00:39:35;;;;;;;3.38;2.60;;;;;;;;;;5042095;28;20055;-66
2023/06/28 00:42:02;;;;;;;2.78;2.58;;;;;;;;;;5044256;28;20125;-66
2023/06/28 00:44:27;;;;;;;3.30;2.60;;;;;;;;;;5045002;28;20063;-66
2023/06/28 00:46:55;;;;;;;5.05;2.67;;;;;;;;;;5060331;28;20104;-66
2023/06/28 00:49:22;;;;;;;2.80;2.38;;;;;;;;;;5043592;28;20083;-66
2023/06/28 00:51:48;;;;;;;3.28;2.55;;;;;;;;;;5043871;28;20041;-67
2023/06/28 00:54:15;;;;;;;2.70;2.38;;;;;;;;;;5044645;28;20435;-66
2023/06/28 00:56:40;;;;;;;3.22;2.70;;;;;;;;;;5042910;28;20064;-66
2023/06/28 00:59:07;;;;;;;4.07;2.50;;;;;;;;;;5044214;28;20111;-66
2023/06/28 01:01:35;;;;;;;3.00;2.65;;;;;;;;;;5043079;28;20075;-66
2023/06/28 01:04:04;;;;;;;3.08;2.70;;;;;;;;;;5044770;28;20049;-66
2023/06/28 01:06:35;;;;;;;2.40;2.20;;;;;;;;;;5058784;28;20052;-66
2023/06/28 01:09:04;;;;;;;2.72;2.40;;;;;;;;;;5043000;28;20035;-66
2023/06/28 01:11:31;;;;;;;3.13;2.55;;;;;;;;;;5042915;28;20040;-66
2023/06/28 01:13:58;;;;;;;2.70;2.50;;;;;;;;;;5040663;28;20040;-66
2023/06/28 01:16:24;;;;;;;3.75;2.65;;;;;;;;;;5044026;28;20063;-66
2023/06/28 01:18:50;;;;;;;3.08;2.50;;;;;;;;;;5044148;28;20627;-66
2023/06/28 01:21:16;;;;;;;4.05;2.60;;;;;;;;;;5043006;28;20037;-67
2023/06/28 01:23:42;;;;;;;4.40;2.40;;;;;;;;;;5058410;28;20040;-66
2023/06/28 01:26:08;;;;;;;2.50;2.33;;;;;;;;;;5044451;28;20029;-66
2023/06/28 01:28:35;;;;;;;3.90;2.53;;;;;;;;;;5043719;28;20090;-66
2023/06/28 01:31:03;;;;;;;5.47;2.65;;;;;;;;;;5042765;28;20421;-66
2023/06/28 01:33:32;;;;;;;10.85;2.53;;;;;;;;;;5024333;28;20043;-66
2023/06/28 01:35:57;;;;;;;3.28;2.60;;;;;;;;;;5044251;28;20040;-66
2023/06/28 01:38:28;;;;;;;2.70;2.50;;;;;;;;;;5060611;28;20059;-66
2023/06/28 01:40:54;;;;;;;3.83;2.83;;;;;;;;;;5044500;28;20036;-66
2023/06/28 01:43:20;;;;;;;2.70;2.50;;;;;;;;;;5046050;28;20139;-66
2023/06/28 01:45:49;;;;;;;2.58;2.42;;;;;;;;;;5047867;28;20104;-66
2023/06/28 01:48:15;;;;;;;2.83;2.50;;;;;;;;;;5044728;28;20028;-66
2023/06/28 01:50:41;;;;;;;4.50;2.65;;;;;;;;;;5047632;28;20419;-66
2023/06/28 01:53:07;;;;;;;4.88;2.90;;;;;;;;;;5047246;28;20033;-66
2023/06/28 01:55:32;;;;;;;3.58;2.50;;;;;;;;;;5046218;28;20476;-66
2023/06/28 01:57:58;;;;;;;6.05;2.60;;;;;;;;;;5044333;28;20129;-66
2023/06/28 02:00:23;;;;;;;4.38;2.60;;;;;;;;;;5079372;28;20040;-66
2023/06/28 02:02:50;;;;;;;2.88;2.60;;;;;;;;;;5046740;28;20037;-66
2023/06/28 02:05:16;;;;;;;2.63;2.45;;;;;;;;;;5043066;28;20056;-66
2023/06/28 02:07:43;;;;;;;7.60;3.05;;;;;;;;;;5045978;28;20033;-67
2023/06/28 02:10:11;;;;;;;3.38;3.00;;;;;;;;;;5044307;28;20051;-66
2023/06/28 02:12:37;;;;;;;3.43;2.90;;;;;;;;;;5061425;28;20040;-66
2023/06/28 02:15:04;;;;;;;3.17;2.95;;;;;;;;;;5044944;28;20098;-66
2023/06/28 02:17:31;;;;;;;2.42;2.33;;;;;;;;;;5037968;28;20048;-66
2023/06/28 02:19:57;;;;;;;3.63;2.88;;;;;;;;;;5054479;28;20063;-66
2023/06/28 02:22:26;;;;;;;2.80;2.60;;;;;;;;;;5045122;28;20029;-66
2023/06/28 02:24:52;;;;;;;4.55;2.80;;;;;;;;;;5046868;28;20103;-66
2023/06/28 02:27:18;;;;;;;3.15;2.80;;;;;;;;;;5046331;28;20040;-66
2023/06/28 02:29:45;;;;;;;5.18;2.65;;;;;;;;;;5060999;28;20025;-67
2023/06/28 02:32:12;;;;;;;3.10;2.90;;;;;;;;;;5045490;28;20112;-66
2023/06/28 02:34:38;;;;;;;2.95;2.75;;;;;;;;;;5046684;28;20130;-66
2023/06/28 02:37:03;;;;;;;3.78;2.90;;;;;;;;;;5042799;28;20044;-66
2023/06/28 02:39:29;;;;;;;4.32;2.75;;;;;;;;;;5045717;28;20032;-66
2023/06/28 02:41:54;;;;;;;3.60;3.00;;;;;;;;;;5045379;28;20056;-66
2023/06/28 02:44:20;;;;;;;4.43;2.90;;;;;;;;;;5061726;28;20037;-66
2023/06/28 02:46:47;;;;;;;5.95;2.70;;;;;;;;;;5059580;28;20040;-66
2023/06/28 02:49:13;;;;;;;3.78;2.78;;;;;;;;;;5060971;28;20029;-66
2023/06/28 02:51:38;;;;;;;4.13;2.85;;;;;;;;;;5061820;28;20041;-66
2023/06/28 02:54:06;;;;;;;8.38;3.25;;;;;;;;;;5042648;28;20087;-66
2023/06/28 02:56:33;;;;;;;2.70;2.53;;;;;;;;;;5045173;28;20036;-66
2023/06/28 02:59:17;;;;;;;3.22;2.90;;;;;;;;;;5043675;28;20025;-66
2023/06/28 03:01:45;;;;;;;3.42;3.00;;;;;;;;;;5045292;28;20036;-67
2023/06/28 03:04:12;;;;;;;2.85;2.60;;;;;;;;;;5061530;28;20523;-66
2023/06/28 03:06:39;;;;;;;2.95;2.75;;;;;;;;;;5044393;28;20033;-66
2023/06/28 03:09:05;;;;;;;5.90;3.00;;;;;;;;;;5043007;28;20053;-66
2023/06/28 03:11:31;;;;;;;2.92;2.70;;;;;;;;;;5061178;28;20068;-67
2023/06/28 03:13:56;;;;;;;3.55;2.92;;;;;;;;;;5061548;28;20036;-66
2023/06/28 03:16:22;;;;;;;6.05;3.03;;;;;;;;;;5061376;28;20125;-66
2023/06/28 03:18:49;;;;;;;3.20;3.00;;;;;;;;;;5059187;28;20036;-66
2023/06/28 03:21:15;;;;;;;2.25;2.05;;;;;;;;;;5044364;28;20743;-66
2023/06/28 03:23:41;;;;;;;3.40;2.78;;;;;;;;;;5044511;28;20094;-65
2023/06/28 03:26:08;;;;;;;3.10;2.80;;;;;;;;;;5045560;28;20112;-65
2023/06/28 03:28:34;;;;;;;3.15;2.85;;;;;;;;;;5043176;28;20605;-65
2023/06/28 03:31:01;;;;;;;4.57;3.25;;;;;;;;;;5058995;28;20037;-65
2023/06/28 03:33:26;;;;;;;5.75;2.97;;;;;;;;;;5043545;28;20047;-65
2023/06/28 03:35:52;;;;;;;5.78;3.22;;;;;;;;;;5042836;28;20068;-65
2023/06/28 03:38:17;;;;;;;3.72;2.75;;;;;;;;;;5045080;28;20036;-65
2023/06/28 03:40:43;;;;;;;2.97;2.75;;;;;;;;;;5044539;28;20108;-65
2023/06/28 03:43:09;;;;;;;3.72;2.75;;;;;;;;;;5060568;28;20352;-65
2023/06/28 03:45:35;;;;;;;3.40;3.10;;;;;;;;;;5041279;28;20057;-65
2023/06/28 03:48:01;;;;;;;3.55;2.80;;;;;;;;;;5043709;28;20032;-65
2023/06/28 03:50:27;;;;;;;3.95;3.28;;;;;;;;;;5060490;28;20032;-66
2023/06/28 03:52:53;;;;;;;4.28;3.00;;;;;;;;;;5042529;28;20037;-66
2023/06/28 03:55:18;;;;;;;4.38;3.20;;;;;;;;;;5045139;28;20403;-66
2023/06/28 03:57:44;;;;;;;3.08;2.70;;;;;;;;;;5044591;28;20055;-66
2023/06/28 04:00:12;;;;;;;5.78;3.13;;;;;;;;;;5059015;28;20061;-66
2023/06/28 04:02:40;;;;;;;2.90;2.60;;;;;;;;;;5044106;28;20048;-66
2023/06/28 04:05:06;;;;;;;3.20;3.00;;;;;;;;;;5044284;28;20029;-66
2023/06/28 04:07:31;;;;;;;3.17;2.90;;;;;;;;;;5044044;28;20041;-66
2023/06/28 04:09:57;;;;;;;3.53;3.22;;;;;;;;;;5042667;28;20025;-66
2023/06/28 04:12:23;;;;;;;3.40;3.15;;;;;;;;;;5045189;28;20060;-66
2023/06/28 04:14:49;;;;;;;5.78;2.75;;;;;;;;;;5044887;28;20507;-66
2023/06/28 04:17:14;;;;;;;3.33;3.13;;;;;;;;;;5040847;28;20071;-66
2023/06/28 04:19:40;;;;;;;2.90;2.70;;;;;;;;;;5039456;28;20115;-66
2023/06/28 04:22:06;;;;;;;3.88;2.95;;;;;;;;;;5043647;28;20033;-66
2023/06/28 04:24:31;;;;;;;3.85;2.92;;;;;;;;;;5044512;28;20037;-66
2023/06/28 04:27:00;;;;;;;3.30;3.10;;;;;;;;;;5041531;28;20047;-66
2023/06/28 04:29:29;;;;;;;3.55;3.10;;;;;;;;;;5043994;28;20108;-66
2023/06/28 04:31:59;;;;;;;;;;;;;;;;;;5045183;28;20070;-66
2023/06/28 04:34:24;;;;;;;5.63;3.30;;;;;;;;;;5044698;28;19961;-66
2023/06/28 04:36:51;;;;;;;3.38;3.00;;;;;;;;;;5042957;28;20036;-66
2023/06/28 04:39:17;;;;;;;3.50;3.13;;;;;;;;;;5042787;28;20044;-66
2023/06/28 04:41:42;;;;;;;6.22;3.10;;;;;;;;;;5044789;28;20033;-66
2023/06/28 04:44:09;;;;;;;6.40;3.47;;;;;;;;;;5042674;28;20078;-66
2023/06/28 04:46:35;;;;;;;4.50;2.65;;;;;;;;;;5043908;28;20142;-66
2023/06/28 04:49:01;;;;;;;5.63;2.70;;;;;;;;;;5044452;28;20163;-66
2023/06/28 04:51:27;;;;;;;2.70;2.53;;;;;;;;;;5044368;28;20641;-66
2023/06/28 04:53:53;;;;;;;3.00;2.70;;;;;;;;;;5042678;28;20392;-66
2023/06/28 04:56:19;;;;;;;6.35;2.78;;;;;;;;;;5044393;28;20473;-66
2023/06/28 04:58:44;;;;;;;3.83;2.63;;;;;;;;;;5044392;28;20045;-66
2023/06/28 05:01:10;;;;;;;7.70;3.05;;;;;;;;;;5043525;28;20045;-66
2023/06/28 05:03:38;;;;;;;5.28;3.00;;;;;;;;;;5043690;28;20075;-66
2023/06/28 05:06:07;;;;;;;3.17;2.80;;;;;;;;;;5044509;28;20105;-66
2023/06/28 05:08:34;;;;;;;4.30;3.05;;;;;;;;;;5043798;28;20029;-66
2023/06/28 05:11:00;;;;;;;2.92;2.72;;;;;;;;;;5042044;28;20041;-66
2023/06/28 05:13:26;;;;;;;3.05;2.85;;;;;;;;;;5046532;28;20041;-66
2023/06/28 05:15:52;;;;;;;4.60;3.03;;;;;;;;;;5048126;28;20064;-66
2023/06/28 05:18:18;;;;;;;3.80;2.90;;;;;;;;;;5046241;28;20029;-66
2023/06/28 05:20:44;;;;;;;6.25;3.10;;;;;;;;;;5046819;28;20037;-67
2023/06/28 05:23:12;;;;;;;2.83;2.60;;;;;;;;;;5048613;28;20037;-66
2023/06/28 05:25:39;;;;;;;3.35;2.80;;;;;;;;;;5048836;28;20044;-66
2023/06/28 05:28:05;;;;;;;3.28;2.85;;;;;;;;;;5046330;28;20119;-66
2023/06/28 05:30:31;;;;;;;7.97;2.90;;;;;;;;;;5048495;28;20134;-66
2023/06/28 05:32:58;;;;;;;4.38;2.97;;;;;;;;;;5046961;28;20130;-66
2023/06/28 05:35:24;;;;;;;4.07;2.60;;;;;;;;;;5048635;28;20388;-66
2023/06/28 05:37:50;;;;;;;3.03;2.70;;;;;;;;;;5047162;28;20041;-66
2023/06/28 05:40:15;;;;;;;4.93;2.85;;;;;;;;;;5047998;28;20058;-66
2023/06/28 05:42:41;;;;;;;3.90;2.83;;;;;;;;;;5046080;28;20494;-67
2023/06/28 05:45:08;;;;;;;5.00;3.03;;;;;;;;;;5048324;28;20028;-66
2023/06/28 05:47:33;;;;;;;5.43;3.00;;;;;;;;;;5047809;28;20451;-66
2023/06/28 05:49:59;;;;;;;4.82;2.78;;;;;;;;;;5045870;28;20032;-66
2023/06/28 05:52:24;;;;;;;3.10;2.80;;;;;;;;;;5048245;28;20515;-66
2023/06/28 05:54:50;;;;;;;3.17;2.83;;;;;;;;;;5047964;28;20116;-66
2023/06/28 05:57:16;;;;;;;4.07;2.80;;;;;;;;;;5044996;28;20079;-66
2023/06/28 05:59:41;;;;;;;3.75;3.03;;;;;;;;;;5047284;28;20043;-66
2023/06/28 06:02:07;;;;;;;3.13;2.60;;;;;;;;;;5047917;28;20033;-66
2023/06/28 06:04:33;;;;;;;4.78;2.67;;;;;;;;;;5045280;28;20045;-66
2023/06/28 06:06:58;;;;;;;4.43;2.70;;;;;;;;;;5047791;28;20233;-66
2023/06/28 06:09:24;;;;;;;3.35;2.85;;;;;;;;;;5046998;28;20021;-66
2023/06/28 06:11:49;;;;;;;2.95;2.75;;;;;;;;;;5045311;28;20051;-66
2023/06/28 06:14:15;;;;;;;3.53;2.90;;;;;;;;;;5048006;28;20040;-66
2023/06/28 06:16:41;;;;;;;4.47;2.90;;;;;;;;;;5047329;28;20037;-66
2023/06/28 06:19:06;;;;;;;3.42;2.75;;;;;;;;;;5046427;28;20040;-66
2023/06/28 06:21:32;;;;;;;3.35;2.88;;;;;;;;;;5045825;28;20068;-66
2023/06/28 06:23:59;;;;;;;5.32;3.00;;;;;;;;;;5046791;28;20404;-66
2023/06/28 06:26:27;;;;;;;2.72;2.50;;;;;;;;;;5047052;28;20577;-68
2023/06/28 06:28:53;;;;;;;8.57;3.35;;;;;;;;;;5047349;28;20124;-66
2023/06/28 06:31:19;;;;;;;3.72;2.65;;;;;;;;;;5045272;28;20058;-66
2023/06/28 06:33:44;;;;;;;3.47;3.17;;;;;;;;;;5047158;28;20047;-66
2023/06/28 06:36:10;;;;;;;3.83;3.10;;;;;;;;;;5046685;28;20064;-66
2023/06/28 06:38:37;;;;;;;4.03;3.28;;;;;;;;;;5046782;28;20493;-66
2023/06/28 06:41:03;;;;;;;6.07;3.05;;;;;;;;;;5045764;28;20037;-66
2023/06/28 06:43:28;;;;;;;4.55;2.92;;;;;;;;;;5046904;28;20039;-66
2023/06/28 06:45:54;;;;;;;4.28;3.35;;;;;;;;;;5046917;28;20036;-66
2023/06/28 06:48:20;;;;;;;3.25;3.00;;;;;;;;;;5045261;28;20032;-66
2023/06/28 06:50:45;;;;;;;6.65;3.50;;;;;;;;;;5047170;28;20048;-66
2023/06/28 06:53:11;;;;;;;3.33;3.00;;;;;;;;;;5046621;28;20033;-66
2023/06/28 06:55:36;;;;;;;4.75;3.20;;;;;;;;;;5046932;28;20036;-66
2023/06/28 06:58:02;;;;;;;3.55;3.00;;;;;;;;;;5045412;28;20361;-66
2023/06/28 07:00:29;;;;;;;3.22;2.90;;;;;;;;;;5046523;28;20033;-66
2023/06/28 07:02:54;;;;;;;4.70;3.17;;;;;;;;;;5046909;28;20044;-66
2023/06/28 07:05:20;;;;;;;3.45;3.10;;;;;;;;;;5046511;28;20400;-66
2023/06/28 07:07:45;;;;;;;5.00;3.40;;;;;;;;;;5044310;28;20499;-66
2023/06/28 07:10:11;;;;;;;2.92;2.70;;;;;;;;;;5046714;28;20043;-66
2023/06/28 07:12:36;;;;;;;2.90;2.70;;;;;;;;;;5046737;28;20037;-66
2023/06/28 07:15:02;;;;;;;6.35;2.92;;;;;;;;;;5047054;28;20560;-66
2023/06/28 07:17:30;;;;;;;3.08;2.80;;;;;;;;;;5044211;28;20414;-66
2023/06/28 07:19:56;;;;;;;3.92;2.72;;;;;;;;;;5046202;28;20028;-66
2023/06/28 07:22:21;;;;;;;4.45;2.80;;;;;;;;;;5046245;28;20393;-66
2023/06/28 07:24:47;;;;;;;4.30;2.70;;;;;;;;;;5044844;28;20025;-66
2023/06/28 07:27:13;;;;;;;5.03;2.95;;;;;;;;;;5045463;28;20283;-66
2023/06/28 07:29:38;;;;;;;2.75;2.55;;;;;;;;;;5045988;28;20422;-66
2023/06/28 07:32:05;;;;;;;7.10;2.80;;;;;;;;;;5046118;28;20060;-66
2023/06/28 07:34:30;;;;;;;4.15;2.50;;;;;;;;;;5045132;28;20060;-66
2023/06/28 07:36:56;;;;;;;4.13;2.70;;;;;;;;;;5045959;28;20432;-66
2023/06/28 07:39:21;;;;;;;3.33;2.70;;;;;;;;;;5045463;28;20033;-66
2023/06/28 07:41:47;;;;;;;3.88;2.40;;;;;;;;;;5044138;28;20052;-66
2023/06/28 07:44:12;;;;;;;4.68;2.88;;;;;;;;;;5045584;28;20049;-66
2023/06/28 07:46:38;;;;;;;5.63;3.13;;;;;;;;;;5046761;28;20044;-66
2023/06/28 07:49:03;;;;;;;7.40;2.72;;;;;;;;;;5045871;28;20111;-66
2023/06/28 07:51:29;;;;;;;9.35;3.05;;;;;;;;;;5042959;28;20060;-66
2023/06/28 07:53:55;;;;;;;5.38;2.90;;;;;;;;;;5045846;28;20054;-66
2023/06/28 07:56:21;;;;;;;2.65;2.45;;;;;;;;;;5045600;28;20041;-66
2023/06/28 07:58:48;;;;;;;5.15;2.70;;;;;;;;;;5042286;28;20503;-66
2023/06/28 08:01:14;;;;;;;3.33;2.80;;;;;;;;;;5045554;28;20071;-66
2023/06/28 08:03:40;;;;;;;7.50;3.45;;;;;;;;;;5045561;28;20037;-66
2023/06/28 08:06:06;;;;;;;3.58;2.83;;;;;;;;;;5044412;28;20486;-66
2023/06/28 08:08:31;;;;;;;3.00;2.70;;;;;;;;;;5045285;28;20094;-66
2023/06/28 08:11:00;;;;;;;5.43;2.80;;;;;;;;;;5045509;28;20503;-66
2023/06/28 08:13:26;;;;;;;3.10;2.60;;;;;;;;;;5044014;28;20029;-66
2023/06/28 08:15:51;;;;;;;2.53;2.38;;;;;;;;;;5045428;28;20093;-66
2023/06/28 08:18:17;;;;;;;3.17;2.88;;;;;;;;;;5044811;28;20484;-66
2023/06/28 08:20:44;;;;;;;5.82;3.10;;;;;;;;;;5039106;28;20036;-66
2023/06/28 08:23:10;;;;;;;4.50;2.90;;;;;;;;;;5043138;28;20028;-66
2023/06/28 08:25:35;;;;;;;2.95;2.63;;;;;;;;;;5044189;28;20182;-67
2023/06/28 08:28:01;;;;;;;6.68;3.05;;;;;;;;;;5044941;28;20544;-66
2023/06/28 08:30:27;;;;;;;3.45;2.88;;;;;;;;;;5042622;28;20225;-67
2023/06/28 08:32:52;;;;;;;8.25;3.25;;;;;;;;;;5046362;28;20435;-66
2023/06/28 08:35:18;;;;;;;3.25;2.35;;;;;;;;;;5039946;28;20067;-66
2023/06/28 08:37:43;;;;;;;3.15;2.85;;;;;;;;;;5043964;28;20381;-66
2023/06/28 08:40:10;;;;;;;3.10;2.75;;;;;;;;;;5044177;28;20063;-66
2023/06/28 08:42:38;;;;;;;3.10;2.90;;;;;;;;;;5044672;28;20025;-66
2023/06/28 08:45:04;;;;;;;3.42;2.70;;;;;;;;;;5042897;28;20116;-66
2023/06/28 08:47:32;;;;;;;3.28;2.88;;;;;;;;;;5045471;28;20044;-66
2023/06/28 08:49:58;;;;;;;5.43;2.92;;;;;;;;;;5042234;28;20098;-67
2023/06/28 08:52:25;;;;;;;9.50;3.00;;;;;;;;;;5048722;28;20222;-66
2023/06/28 08:54:52;;;;;;;3.00;2.70;;;;;;;;;;5048758;28;20119;-66
2023/06/28 08:57:19;;;;;;;3.72;2.78;;;;;;;;;;5048669;28;20041;-67
2023/06/28 08:59:45;;;;;;;4.15;2.72;;;;;;;;;;5047492;28;20035;-67
2023/06/28 09:02:17;;;;;;;3.80;3.10;;;;;;;;;;5047355;28;20095;-66
2023/06/28 09:04:43;;;;;;;7.60;3.30;;;;;;;;;;5043159;28;20359;-66
2023/06/28 09:07:09;;;;;;;3.55;3.15;;;;;;;;;;5048506;28;20067;-66
2023/06/28 09:09:36;;;;;;;4.25;2.60;;;;;;;;;;5048175;28;20037;-66
2023/06/28 09:12:02;;;;;;;4.70;3.15;;;;;;;;;;5043771;28;20033;-66
2023/06/28 09:14:28;;;;;;;3.70;3.13;;;;;;;;;;5043833;28;20483;-66
2023/06/28 09:16:54;;;;;;;5.90;2.80;;;;;;;;;;5046533;28;20028;-66
2023/06/28 09:19:20;;;;;;;2.90;2.65;;;;;;;;;;5038690;28;20037;-66
2023/06/28 09:21:45;;;;;;;4.47;3.05;;;;;;;;;;5040083;28;20136;-66
2023/06/28 09:24:12;;;;;;;3.83;2.50;;;;;;;;;;5045468;28;20062;-66
2023/06/28 09:26:40;;;;;;;5.55;3.60;;;;;;;;;;5046294;28;20036;-66
2023/06/28 09:29:08;;;;;;;2.88;2.67;;;;;;;;;;5044932;28;20086;-67
2023/06/28 09:31:39;;;;;;;3.75;2.67;;;;;;;;;;5046157;28;20095;-67
2023/06/28 09:34:05;;;;;;;2.95;2.50;;;;;;;;;;5047794;28;20499;-66
2023/06/28 09:36:37;;;;;;;3.25;2.50;;;;;;;;;;5044956;28;20037;-66
2023/06/28 09:39:04;;;;;;;4.40;2.60;;;;;;;;;;5047110;28;20404;-67
2023/06/28 09:41:41;;;;;;;2.92;2.72;;;;;;;;;;5046915;28;20050;-66
2023/06/28 09:44:10;;;;;;;2.95;2.72;;;;;;;;;;5046639;28;20032;-67
2023/06/28 09:46:43;;;;;;;5.75;2.95;;;;;;;;;;5047637;28;20118;-66
2023/06/28 09:49:22;;;;;;;3.00;2.70;;;;;;;;;;5047414;28;20056;-66
2023/06/28 09:52:03;;;;;;;2.88;2.58;;;;;;;;;;5044854;28;20036;-66
2023/06/28 09:54:32;;;;;;;3.20;2.53;;;;;;;;;;5045930;28;20029;-66
2023/06/28 09:57:00;;;;;;;3.33;2.60;;;;;;;;;;5047392;28;20040;-66
2023/06/28 09:59:33;;;;;;;3.72;2.80;;;;;;;;;;5047017;28;20028;-67
2023/06/28 10:01:59;;;;;;;6.05;3.05;;;;;;;;;;5048401;28;20561;-66
2023/06/28 10:04:29;;;;;;;4.70;2.83;;;;;;;;;;5046031;28;20166;-66
2023/06/28 10:07:00;;;;;;;6.55;2.80;;;;;;;;;;5047340;28;20029;-66
2023/06/28 10:09:34;;;;;;;5.10;2.78;;;;;;;;;;5046821;28;20025;-66
2023/06/28 10:12:03;;;;;;;8.07;2.92;;;;;;;;;;5045851;28;20040;-66
2023/06/28 10:14:31;;;;;;;;;;;;;;;;;;5047462;28;20177;-67
2023/06/28 10:16:59;;;;;;;2.85;2.65;;;;;;;;;;5029272;28;20007;-66
2023/06/28 10:19:26;;;;;;;5.07;2.97;;;;;;;;;;5045258;28;20091;-66
2023/06/28 10:21:52;;;;;;;4.78;2.80;;;;;;;;;;5045920;28;20045;-66
2023/06/28 10:24:18;;;;;;;2.90;2.50;;;;;;;;;;5044926;28;20037;-66
2023/06/28 10:26:43;;;;;;;4.15;2.47;;;;;;;;;;5047216;28;20051;-66
2023/06/28 10:29:09;;;;;;;3.35;2.50;;;;;;;;;;5046078;28;20079;-66
2023/06/28 10:31:34;;;;;;;4.65;2.65;;;;;;;;;;5046801;28;20044;-66
2023/06/28 10:34:01;;;;;;;3.10;2.80;;;;;;;;;;5047087;28;20037;-66
2023/06/28 10:36:26;;;;;;;2.75;2.20;;;;;;;;;;5047955;28;20037;-66
2023/06/28 10:38:52;;;;;;;4.05;2.63;;;;;;;;;;5046184;28;20372;-66
2023/06/28 10:41:19;;;;;;;4.32;2.40;;;;;;;;;;5046657;28;20500;-66
2023/06/28 10:43:45;;;;;;;4.00;2.55;;;;;;;;;;5047037;28;20068;-66
2023/06/28 10:46:22;;;;;;;5.20;2.50;;;;;;;;;;5046692;28;20072;-66
2023/06/28 10:48:47;;;;;;;2.40;2.20;;;;;;;;;;5046497;28;20439;-66
2023/06/28 10:51:14;;;;;;;5.32;2.40;;;;;;;;;;5046850;28;20555;-66
2023/06/28 10:54:04;;;;;;;3.25;2.55;;;;;;;;;;5046756;28;20044;-66
2023/06/28 10:56:42;;;;;;;4.57;2.40;;;;;;;;;;5045978;28;20114;-66
2023/06/28 10:59:07;;;;;;;3.30;2.20;;;;;;;;;;5045082;28;20036;-66
2023/06/28 11:01:54;;;;;;;3.58;2.28;;;;;;;;;;5046440;28;20104;-66
2023/06/28 11:04:23;;;;;;;5.00;2.35;;;;;;;;;;5046136;28;20040;-66
2023/06/28 11:07:09;;;;;;;3.10;2.60;;;;;;;;;;5045659;28;20043;-66
2023/06/28 11:09:35;;;;;;;2.58;2.30;;;;;;;;;;5045879;28;20116;-66
2023/06/28 11:12:03;;;;;;;3.13;2.50;;;;;;;;;;5045428;28;20438;-66
2023/06/28 11:14:31;;;;;;;4.07;2.50;;;;;;;;;;5044248;28;20025;-66
2023/06/28 11:17:06;;;;;;;8.93;2.85;;;;;;;;;;5046056;28;20459;-66
2023/06/28 11:19:32;;;;;;;4.40;2.45;;;;;;;;;;5045177;28;20064;-66
2023/06/28 11:21:59;;;;;;;4.82;2.45;;;;;;;;;;5045924;28;20039;-66
2023/06/28 11:24:37;;;;;;;3.33;2.20;;;;;;;;;;5043955;28;20032;-66
2023/06/28 11:27:09;;;;;;;5.18;2.20;;;;;;;;;;5045741;28;20411;-66
2023/06/28 11:29:51;;;;;;;3.15;2.40;;;;;;;;;;5045546;28;20121;-66
2023/06/28 11:32:22;;;;;;;2.90;2.40;;;;;;;;;;5045568;28;20117;-66
2023/06/28 11:34:48;;;;;;;2.38;2.15;;;;;;;;;;5043798;28;20045;-66
2023/06/28 11:37:14;;;;;;;2.45;2.25;;;;;;;;;;5045670;28;20373;-66
2023/06/28 11:39:40;;;;;;;3.28;2.65;;;;;;;;;;5044713;28;20043;-66
2023/06/28 11:42:12;;;;;;;3.25;2.50;;;;;;;;;;5044456;28;20040;-66
2023/06/28 11:44:49;;;;;;;5.55;2.35;;;;;;;;;;5044306;28;20036;-66
2023/06/28 11:47:20;;;;;;;3.55;2.50;;;;;;;;;;5045597;28;20377;-66
2023/06/28 11:49:49;;;;;;;3.05;2.40;;;;;;;;;;5045299;28;20033;-66
2023/06/28 11:52:20;;;;;;;4.03;2.58;;;;;;;;;;5044045;28;20033;-66
2023/06/28 11:54:45;;;;;;;2.97;2.67;;;;;;;;;;5040204;28;20128;-66
2023/06/28 11:57:11;;;;;;;4.40;2.50;;;;;;;;;;5043914;28;20467;-66
2023/06/28 11:59:44;;;;;;;4.15;2.40;;;;;;;;;;5043249;28;20037;-66
2023/06/28 12:02:10;;;;;;;3.88;2.13;;;;;;;;;;5039185;28;20067;-66
2023/06/28 12:04:37;;;;;;;3.42;2.50;;;;;;;;;;5042814;28;20033;-66
2023/06/28 12:07:04;;;;;;;3.00;2.50;;;;;;;;;;5043122;28;20114;-66
2023/06/28 12:09:35;;;;;;;2.88;2.45;;;;;;;;;;5042735;28;20530;-66
2023/06/28 12:12:05;;;;;;;4.85;2.53;;;;;;;;;;5041403;28;20040;-66
2023/06/28 12:14:38;;;;;;;3.30;2.47;;;;;;;;;;5040877;28;20491;-66
2023/06/28 12:17:04;;;;;;;4.35;3.00;;;;;;;;;;5042991;28;20542;-66
2023/06/28 12:19:35;;;;;;;3.40;2.17;;;;;;;;;;5042102;28;20221;-66
2023/06/28 12:22:04;;;;;;;2.78;2.45;;;;;;;;;;5042853;28;20071;-66
2023/06/28 12:24:32;;;;;;;2.72;2.40;;;;;;;;;;5040174;28;20051;-66
2023/06/28 12:26:58;;;;;;;3.85;2.67;;;;;;;;;;5043431;28;20408;-66
2023/06/28 12:29:26;;;;;;;2.67;2.38;;;;;;;;;;5042521;28;20033;-66
2023/06/28 12:31:53;;;;;;;3.63;2.50;;;;;;;;;;5040804;28;20033;-66
2023/06/28 12:34:23;;;;;;;2.67;2.33;;;;;;;;;;5043053;28;20040;-66
2023/06/28 12:37:00;;;;;;;3.28;2.20;;;;;;;;;;5058610;28;20029;-66
2023/06/28 12:39:27;;;;;;;3.72;2.10;;;;;;;;;;5042939;28;20317;-66
2023/06/28 12:42:10;;;;;;;2.60;2.40;;;;;;;;;;5040493;28;20037;-66
2023/06/28 12:44:55;;;;;;;3.53;2.20;;;;;;;;;;5043028;28;20123;-66
2023/06/28 12:47:28;;;;;;;2.42;2.22;;;;;;;;;;5041406;28;20216;-66
2023/06/28 12:49:55;;;;;;;7.80;2.80;;;;;;;;;;5038469;28;20052;-66
2023/06/28 12:52:25;;;;;;;2.75;2.50;;;;;;;;;;5041357;28;20041;-66
2023/06/28 12:54:51;;;;;;;2.60;2.40;;;;;;;;;;5042658;28;20037;-66
2023/06/28 12:57:18;;;;;;;3.47;2.60;;;;;;;;;;5040313;28;20112;-66
2023/06/28 12:59:44;;;;;;;2.70;2.10;;;;;;;;;;5041340;28;20115;-66
2023/06/28 13:02:09;;;;;;;3.72;2.63;;;;;;;;;;5042743;28;20447;-66
2023/06/28 13:04:37;;;;;;;3.58;2.33;;;;;;;;;;5042319;28;20480;-66
2023/06/28 13:07:11;;;;;;;2.63;2.42;;;;;;;;;;5040703;28;20083;-66
2023/06/28 13:09:37;;;;;;;3.58;2.40;;;;;;;;;;5041815;28;20037;-66
2023/06/28 13:12:04;;;;;;;5.05;2.20;;;;;;;;;;5039504;28;20430;-66
2023/06/28 13:14:29;;;;;;;4.80;2.50;;;;;;;;;;5042127;28;20120;-66
2023/06/28 13:16:56;;;;;;;4.43;2.42;;;;;;;;;;5041449;28;20118;-66
2023/06/28 13:19:23;;;;;;;4.07;2.33;;;;;;;;;;5042215;28;20072;-67
2023/06/28 13:21:51;;;;;;;2.45;2.25;;;;;;;;;;5041373;28;20567;-66
2023/06/28 13:24:18;;;;;;;4.85;2.20;;;;;;;;;;5042295;28;20056;-67
2023/06/28 13:26:45;;;;;;;2.85;2.20;;;;;;;;;;5042816;28;20029;-67
2023/06/28 13:29:11;;;;;;;3.25;2.30;;;;;;;;;;5039308;28;20476;-66
2023/06/28 13:31:37;;;;;;;5.90;2.60;;;;;;;;;;5041949;28;20032;-67
2023/06/28 13:34:02;;;;;;;5.47;2.40;;;;;;;;;;5044066;28;20036;-67
2023/06/28 13:36:28;;;;;;;2.28;2.10;;;;;;;;;;5045874;28;20036;-66
2023/06/28 13:38:54;;;;;;;2.50;2.13;;;;;;;;;;5043643;28;20190;-66
2023/06/28 13:41:20;;;;;;;2.28;2.08;;;;;;;;;;5045551;28;20032;-67
2023/06/28 13:43:45;;;;;;;2.42;2.22;;;;;;;;;;5046147;28;20485;-66
2023/06/28 13:46:11;;;;;;;4.07;2.20;;;;;;;;;;5044742;28;20033;-67
2023/06/28 13:48:36;;;;;;;3.63;2.22;;;;;;;;;;5045383;28;20404;-66
2023/06/28 13:51:02;;;;;;;3.08;2.25;;;;;;;;;;5045839;28;20087;-66
2023/06/28 13:53:28;;;;;;;2.88;2.40;;;;;;;;;;5045864;28;20037;-66
2023/06/28 13:55:54;;;;;;;2.55;2.35;;;;;;;;;;5043740;28;20049;-66
2023/06/28 13:58:19;;;;;;;5.32;2.90;;;;;;;;;;5045203;28;20489;-66
2023/06/28 14:00:46;;;;;;;3.38;2.47;;;;;;;;;;5045467;28;20242;-66
2023/06/28 14:03:11;;;;;;;3.28;2.20;;;;;;;;;;5044623;28;20056;-67
2023/06/28 14:05:37;;;;;;;2.30;2.10;;;;;;;;;;5044959;28;20036;-67
2023/06/28 14:08:03;;;;;;;2.83;2.10;;;;;;;;;;5045399;28;20052;-67
2023/06/28 14:10:28;;;;;;;1.85;1.77;;;;;;;;;;5045689;28;20041;-67
2023/06/28 14:12:54;;;;;;;2.13;1.95;;;;;;;;;;5043985;28;20032;-67
2023/06/28 14:15:20;;;;;;;2.08;1.88;;;;;;;;;;5043412;28;20104;-67
2023/06/28 14:17:45;;;;;;;1.98;1.80;;;;;;;;;;5044997;28;20122;-67
2023/06/28 14:20:11;;;;;;;2.00;1.90;;;;;;;;;;5044208;28;20061;-67
2023/06/28 14:22:37;;;;;;;2.00;1.88;;;;;;;;;;5043215;28;20041;-67
2023/06/28 14:25:04;;;;;;;4.45;2.10;;;;;;;;;;5044714;28;20036;-66
2023/06/28 14:27:30;;;;;;;2.03;1.92;;;;;;;;;;5043067;28;20036;-67
2023/06/28 14:29:55;;;;;;;3.17;2.05;;;;;;;;;;5042279;28;20248;-67
2023/06/28 14:32:21;;;;;;;3.00;2.08;;;;;;;;;;5040776;28;20048;-67
2023/06/28 14:34:47;;;;;;;4.63;2.38;;;;;;;;;;5041070;28;20025;-67
2023/06/28 14:37:12;;;;;;;2.33;2.13;;;;;;;;;;5045181;28;20270;-67
2023/06/28 14:39:38;;;;;;;4.40;2.30;;;;;;;;;;5046529;28;20102;-67
2023/06/28 14:42:03;;;;;;;2.60;2.20;;;;;;;;;;5059671;28;20047;-67